createdAt,value
2019-03-06T00:03:05.098Z,55
2019-03-06T00:08:05.077Z,54.6
2019-03-06T00:13:05.099Z,54.4
2019-03-06T00:18:05.065Z,54.2
2019-03-06T00:23:05.132Z,54.1
2019-03-06T00:28:05.085Z,54.2
2019-03-06T00:33:05.078Z,53.9
2019-03-06T00:38:05.056Z,54.1
2019-03-06T00:43:05.045Z,54.2
2019-03-06T00:48:05.044Z,54.1
2019-03-06T00:53:05.054Z,54.3
2019-03-06T00:58:05.059Z,54.4
2019-03-06T01:03:05.065Z,54
2019-03-06T01:08:05.002Z,54.2
2019-03-06T01:13:06.114Z,54.4
2019-03-06T01:18:05.035Z,54.4
2019-03-06T01:23:04.989Z,54.3
2019-03-06T01:28:05.011Z,54.3
2019-03-06T01:33:05.027Z,54.2
2019-03-06T01:38:04.976Z,54.4
2019-03-06T01:43:05.000Z,54.4
2019-03-06T01:48:05.013Z,54.4
2019-03-06T01:53:04.947Z,54.4
2019-03-06T01:58:05.051Z,54.4
2019-03-06T02:03:04.952Z,54.4
2019-03-06T02:08:04.938Z,54.6
2019-03-06T02:13:04.991Z,54.3
2019-03-06T02:18:04.967Z,54.3
2019-03-06T02:23:04.943Z,54.3
2019-03-06T02:28:04.928Z,54.4
2019-03-06T02:33:04.970Z,54.3
2019-03-06T02:38:04.967Z,54.2
2019-03-06T02:43:04.916Z,54.8
2019-03-06T02:48:04.937Z,54.7
2019-03-06T02:53:04.934Z,54.7
2019-03-06T02:58:05.983Z,54.4
2019-03-06T03:03:04.904Z,54.4
2019-03-06T03:08:04.929Z,54.4
2019-03-06T03:13:04.863Z,54.1
2019-03-06T03:18:04.910Z,54.1
2019-03-06T03:23:04.876Z,54.2
2019-03-06T03:28:04.870Z,54.2
2019-03-06T03:33:05.010Z,54.2
2019-03-06T03:38:04.871Z,54.2
2019-03-06T03:43:04.846Z,54.3
2019-03-06T03:48:05.589Z,54.3
2019-03-06T03:53:05.630Z,54.4
2019-03-06T03:58:05.647Z,54.3
2019-03-06T04:03:05.576Z,54.2
2019-03-06T04:08:05.594Z,54.6
2019-03-06T04:12:06.490Z,54.5
2019-03-06T04:17:06.439Z,54.4
2019-03-06T04:22:08.473Z,54.4
2019-03-06T04:27:06.449Z,54.3
2019-03-06T04:32:07.175Z,54.3
2019-03-06T04:37:06.432Z,54.2
2019-03-06T04:42:06.425Z,54.3
2019-03-06T04:47:06.380Z,53.6
2019-03-06T04:52:06.371Z,54.2
2019-03-06T04:57:06.409Z,54.3
2019-03-06T05:02:06.361Z,54.2
2019-03-06T05:07:06.337Z,54.1
2019-03-06T05:12:06.393Z,54.1
2019-03-06T05:17:06.349Z,53.9
2019-03-06T05:22:06.318Z,53.7
2019-03-06T05:27:06.278Z,53.7
2019-03-06T05:32:06.644Z,53.2
2019-03-06T05:37:06.309Z,53.9
2019-03-06T05:42:06.367Z,54.3
2019-03-06T05:47:06.317Z,53.9
2019-03-06T05:52:06.372Z,53.4
2019-03-06T05:57:06.280Z,53.9
2019-03-06T06:02:06.302Z,52.9
2019-03-06T06:07:06.302Z,52.8
2019-03-06T06:12:06.311Z,52.6
2019-03-06T06:17:07.961Z,52.7
2019-03-06T06:22:07.823Z,52.3
2019-03-06T06:27:07.842Z,52.2
2019-03-06T06:32:07.841Z,52.1
2019-03-06T06:37:07.802Z,51.9
2019-03-06T06:42:07.802Z,51.9
2019-03-06T06:47:07.825Z,52.1
2019-03-06T06:57:08.014Z,51.7
2019-03-06T07:02:08.034Z,51.5
2019-03-06T07:07:08.051Z,51.3
2019-03-06T07:12:08.034Z,51.4
2019-03-06T07:17:08.775Z,51.3
2019-03-06T07:22:08.842Z,51.1
2019-03-06T07:27:08.719Z,51
2019-03-06T07:32:08.739Z,51.5
2019-03-06T07:37:08.758Z,51
2019-03-06T07:42:08.803Z,51
2019-03-06T07:47:09.295Z,51.2
2019-03-06T07:52:08.743Z,51.1
2019-03-06T07:57:08.756Z,51.1
2019-03-06T08:02:08.724Z,51.1
2019-03-06T08:07:08.749Z,51.2
2019-03-06T08:12:08.756Z,51.4
2019-03-06T08:17:08.682Z,51.2
2019-03-06T08:22:08.686Z,51.3
2019-03-06T08:27:08.680Z,51.2
2019-03-06T08:32:08.687Z,51.2
2019-03-06T08:37:08.696Z,51
2019-03-06T08:42:08.738Z,51.1
2019-03-06T08:47:08.642Z,51.2
2019-03-06T08:52:08.667Z,51.1
2019-03-06T08:57:08.684Z,51.2
2019-03-06T09:02:16.077Z,51.8
2019-03-06T09:07:08.681Z,51.3
2019-03-06T09:12:08.655Z,51.3
2019-03-06T09:17:08.950Z,51.3
2019-03-06T09:22:08.628Z,51.4
2019-03-06T09:27:08.619Z,51.3
2019-03-06T09:32:08.641Z,51.5
2019-03-06T09:37:08.608Z,51.8
2019-03-06T09:42:08.613Z,52.1
2019-03-06T09:47:08.610Z,52.1
2019-03-06T09:52:08.579Z,52.2
2019-03-06T09:57:08.635Z,52.3
2019-03-06T10:02:08.607Z,52.4
2019-03-06T10:07:08.555Z,52.5
2019-03-06T10:12:08.662Z,52
2019-03-06T10:17:08.597Z,52.8
2019-03-06T10:22:08.591Z,52.8
2019-03-06T10:27:09.167Z,52.8
2019-03-06T10:32:08.608Z,53
2019-03-06T10:37:09.281Z,51.9
2019-03-06T10:42:09.407Z,51.4
2019-03-06T10:47:09.694Z,51.5
2019-03-06T10:52:09.319Z,52.6
2019-03-06T10:57:09.140Z,52.2
2019-03-06T11:02:09.119Z,52.1
2019-03-06T11:07:09.227Z,52
2019-03-06T11:12:09.576Z,52
2019-03-06T11:17:09.193Z,52.3
2019-03-06T11:22:08.525Z,52.5
2019-03-06T11:27:08.541Z,52.6
2019-03-06T11:32:12.830Z,52.6
2019-03-06T11:37:08.470Z,52.6
2019-03-06T11:42:08.537Z,52.6
2019-03-06T11:47:09.530Z,52.7
2019-03-06T11:52:08.525Z,52.8
2019-03-06T11:57:08.501Z,53
2019-03-06T12:02:09.356Z,53
2019-03-06T12:07:08.491Z,53.1
2019-03-06T12:12:08.440Z,53.1
2019-03-06T12:17:09.279Z,53.3
2019-03-06T12:22:08.530Z,53.4
2019-03-06T12:27:08.479Z,53.4
2019-03-06T12:32:08.436Z,53.5
2019-03-06T12:37:09.737Z,53.1
2019-03-06T12:42:15.337Z,53.5
2019-03-06T12:47:08.408Z,53.6
2019-03-06T12:52:08.370Z,53.7
2019-03-06T12:57:08.433Z,53.9
2019-03-06T13:02:08.414Z,54
2019-03-06T13:07:08.427Z,53.9
2019-03-06T13:12:08.431Z,54.4
2019-03-06T13:17:08.407Z,53.4
2019-03-06T13:22:13.332Z,53.3
2019-03-06T13:27:08.429Z,53.3
2019-03-06T13:32:12.614Z,53.4
2019-03-06T13:37:08.979Z,53.5
2019-03-06T13:42:08.504Z,53.5
2019-03-06T13:47:08.340Z,53.8
2019-03-06T13:52:08.370Z,53.8
2019-03-06T13:57:08.350Z,53.7
2019-03-06T14:02:08.354Z,53.9
2019-03-06T14:07:08.364Z,53.9
2019-03-06T14:12:08.424Z,53.9
2019-03-06T14:17:08.312Z,54
2019-03-06T14:22:08.346Z,54.1
2019-03-06T14:27:08.279Z,54.4
2019-03-06T14:32:15.272Z,54
2019-03-06T14:37:08.286Z,54.2
2019-03-06T14:42:08.346Z,54.1
2019-03-06T14:47:08.874Z,54.2
2019-03-06T14:52:08.320Z,54.2
2019-03-06T14:57:08.286Z,54.3
2019-03-06T15:02:08.270Z,54.3
2019-03-06T15:07:08.292Z,54.2
2019-03-06T15:12:08.283Z,54.1
2019-03-06T15:17:08.295Z,54.2
2019-03-06T15:22:08.265Z,54.2
2019-03-06T15:27:09.170Z,54.2
2019-03-06T15:32:08.244Z,54.4
2019-03-06T15:37:08.268Z,54.2
2019-03-06T15:42:08.217Z,54.4
2019-03-06T15:47:08.219Z,54.4
2019-03-06T15:52:08.235Z,54.4
2019-03-06T15:57:10.433Z,54.3
2019-03-06T16:02:08.174Z,54.5
2019-03-06T16:07:09.178Z,54.4
2019-03-06T16:12:08.206Z,54.6
2019-03-06T16:17:08.172Z,54.6
2019-03-06T16:22:08.177Z,54.5
2019-03-06T16:27:08.214Z,54.6
2019-03-06T16:32:08.195Z,54.7
2019-03-06T16:37:08.244Z,54.8
2019-03-06T16:42:08.193Z,54.6
2019-03-06T16:47:09.251Z,54.6
2019-03-06T16:52:08.154Z,54.6
2019-03-06T16:57:08.144Z,54.7
2019-03-06T17:02:08.160Z,54.8
2019-03-06T17:07:08.104Z,54.7
2019-03-06T17:12:08.098Z,54.8
2019-03-06T17:17:08.158Z,54.6
2019-03-06T17:22:08.124Z,54.6
2019-03-06T17:27:08.094Z,54.6
2019-03-06T17:32:08.136Z,54.5
2019-03-06T17:37:08.099Z,54.7
2019-03-06T17:42:08.720Z,54.7
2019-03-06T17:47:08.205Z,54.8
2019-03-06T17:52:08.062Z,54.7
2019-03-06T17:57:09.314Z,54.6
2019-03-06T18:02:08.116Z,54.7
2019-03-06T18:07:08.073Z,54.8
2019-03-06T18:12:08.030Z,54.7
2019-03-06T18:17:08.091Z,54.7
2019-03-06T18:22:08.910Z,54.7
2019-03-06T18:27:08.053Z,54.7
2019-03-06T18:32:08.127Z,54.7
2019-03-06T18:37:08.526Z,54.5
2019-03-06T18:42:07.966Z,54.5
2019-03-06T18:47:07.998Z,54.7
2019-03-06T18:52:08.036Z,54.5
2019-03-06T18:57:07.971Z,54.5
2019-03-06T19:02:07.998Z,54.4
2019-03-06T19:07:08.025Z,54.3
2019-03-06T19:12:07.991Z,54.4
2019-03-06T19:17:07.980Z,54.2
2019-03-06T19:22:08.017Z,54.2
2019-03-06T19:27:07.986Z,54.1
2019-03-06T19:32:07.983Z,53.9
2019-03-06T19:37:07.944Z,53.9
2019-03-06T19:42:07.968Z,53.8
2019-03-06T19:47:08.975Z,54
2019-03-06T19:52:07.951Z,54
2019-03-06T19:57:07.975Z,54.5
2019-03-06T20:02:08.786Z,53.7
2019-03-06T20:07:26.021Z,53.6
2019-03-06T20:11:56.920Z,53.5
2019-03-06T20:16:56.845Z,53.6
2019-03-06T20:21:56.859Z,53.8
2019-03-06T20:26:56.838Z,53.7
2019-03-06T20:31:56.810Z,53.4
2019-03-06T20:36:56.848Z,53.6
2019-03-06T20:42:08.940Z,53.6
2019-03-06T20:46:56.803Z,53.7
2019-03-06T20:51:56.810Z,53.7
2019-03-06T20:56:56.754Z,53.7
2019-03-06T21:01:56.931Z,53.7
2019-03-06T21:06:57.668Z,53.7
2019-03-06T21:11:56.789Z,53.7
2019-03-06T21:16:56.764Z,53.8
2019-03-06T21:21:57.643Z,53.7
2019-03-06T21:26:56.780Z,53.4
2019-03-06T21:31:56.707Z,53.5
2019-03-06T21:36:56.855Z,53.8
2019-03-06T21:41:57.571Z,54.2
2019-03-06T21:46:57.519Z,53.6
2019-03-06T21:51:57.509Z,53.5
2019-03-06T21:56:57.536Z,53.5
2019-03-06T22:01:58.237Z,53.6
2019-03-06T22:06:58.219Z,53.6
2019-03-06T22:11:58.264Z,53.5
2019-03-06T22:16:58.192Z,53.5
2019-03-06T22:21:58.220Z,53.5
2019-03-06T22:26:58.178Z,53.5
2019-03-06T22:31:58.830Z,52.7
2019-03-06T22:36:58.227Z,52.9
2019-03-06T22:41:58.154Z,53.1
2019-03-06T22:46:58.769Z,53.1
2019-03-06T22:51:58.158Z,53
2019-03-06T22:56:59.100Z,53.1
2019-03-06T23:01:58.104Z,53.3
2019-03-06T23:06:58.147Z,50.9
2019-03-06T23:11:58.132Z,51
2019-03-06T23:16:58.109Z,50.8
2019-03-06T23:21:59.962Z,50.2
2019-03-06T23:26:58.072Z,50
2019-03-06T23:31:58.913Z,50.1
2019-03-06T23:36:58.892Z,50.6
2019-03-06T23:41:58.819Z,50.9
2019-03-06T23:46:58.843Z,51.2
2019-03-06T23:51:58.867Z,51.3
2019-03-06T23:56:58.825Z,51.5
